Time;durP1;ratioP1;P1;durP2;ratioP2;P2;SDS_P1;SDS_P2;PMS_P1;PMS_P2;Temp;Humidity;BMP_temperature;BMP_pressure;BME280_temperature;BME280_humidity;BME280_pressure;Samples;Min_cycle;Max_cycle;Signal;HPM_P1;HPM_P2
2022/10/12 00:00:41;;;;;;;;;;;12.20;99.90;;;;;;5082247;28;20257;-70
2022/10/12 00:03:07;;;;;;;;;;;12.10;99.90;;;;;;5082489;28;20200;-71
2022/10/12 00:05:32;;;;;;;;;;;12.10;99.90;;;;;;5082564;28;20064;-71
2022/10/12 00:07:58;;;;;;;;;;;12.10;99.90;;;;;;5082101;28;19950;-70
2022/10/12 00:10:25;;;;;;;;;;;12.10;99.90;;;;;;5082424;28;20203;-70
2022/10/12 00:12:50;;;;;;;;;;;12.10;99.90;;;;;;5081333;28;19909;-70
2022/10/12 00:15:16;;;;;;;;;;;12.00;99.90;;;;;;5082347;28;20111;-71
2022/10/12 00:17:41;;;;;;;;;;;12.00;99.90;;;;;;5081872;28;19912;-70
2022/10/12 00:20:07;;;;;;;;;;;12.00;99.90;;;;;;5082206;28;19927;-70
2022/10/12 00:22:33;;;;;;;;;;;12.00;99.90;;;;;;5082409;28;19917;-71
2022/10/12 00:24:59;;;;;;;;;;;12.00;99.90;;;;;;5082302;28;19908;-70
2022/10/12 00:27:24;;;;;;;;;;;12.00;99.90;;;;;;5081963;28;19916;-70
2022/10/12 00:29:50;;;;;;;;;;;11.90;99.90;;;;;;5082179;28;19908;-71
2022/10/12 00:32:16;;;;;;;;;;;11.90;99.90;;;;;;5081971;28;19997;-70
2022/10/12 00:34:41;;;;;;;;;;;11.90;99.90;;;;;;5082312;28;19976;-70
2022/10/12 00:37:07;;;;;;;;;;;11.90;99.90;;;;;;5083780;28;19916;-70
2022/10/12 00:39:33;;;;;;;;;;;11.90;99.90;;;;;;5086098;28;20187;-70
2022/10/12 00:41:58;;;;;;;;;;;11.90;99.90;;;;;;5085949;28;19908;-71
2022/10/12 00:44:40;;;;;;;;;;;11.90;99.90;;;;;;5085978;28;19909;-70
2022/10/12 00:47:17;;;;;;;;;;;11.90;99.90;;;;;;5085555;28;19908;-71
2022/10/12 00:49:44;;;;;;;;;;;11.90;99.90;;;;;;5069033;28;19917;-70
2022/10/12 00:52:10;;;;;;;;;;;11.90;99.90;;;;;;5085889;28;20249;-70
2022/10/12 00:54:39;;;;;;;;;;;11.90;99.90;;;;;;5051301;28;19935;-70
2022/10/12 00:57:05;;;;;;;;;;;11.90;99.90;;;;;;5085394;28;19908;-70
2022/10/12 00:59:46;;;;;;;;;;;11.90;99.90;;;;;;5084466;28;19958;-70
2022/10/12 01:02:12;;;;;;;;;;;11.90;99.90;;;;;;5085487;28;19912;-70
2022/10/12 01:04:38;;;;;;;;;;;11.90;99.90;;;;;;5085682;28;19991;-70
2022/10/12 01:07:03;;;;;;;;;;;11.80;99.90;;;;;;5085146;28;19923;-70
2022/10/12 01:09:29;;;;;;;;;;;11.80;99.90;;;;;;5084408;28;19938;-70
2022/10/12 01:11:56;;;;;;;;;;;11.90;99.90;;;;;;5084422;28;19909;-70
2022/10/12 01:14:22;;;;;;;;;;;11.80;99.90;;;;;;5085613;28;19912;-70
2022/10/12 01:16:50;;;;;;;;;;;11.80;99.90;;;;;;5083772;28;19925;-70
2022/10/12 01:19:31;;;;;;;;;;;11.80;99.90;;;;;;5085231;28;19912;-70
2022/10/12 01:22:07;;;;;;;;;;;11.80;99.90;;;;;;5085232;28;19980;-70
2022/10/12 01:24:51;;;;;;;;;;;11.80;99.90;;;;;;5068400;28;20259;-70
2022/10/12 01:27:38;;;;;;;;;;;11.70;99.90;;;;;;5083851;28;19946;-70
2022/10/12 01:30:05;;;;;;;;;;;11.70;99.90;;;;;;5084037;28;19950;-70
2022/10/12 01:32:37;;;;;;;;;;;11.70;99.90;;;;;;5084949;28;19971;-70
2022/10/12 01:35:09;;;;;;;;;;;11.60;99.90;;;;;;5085374;28;19909;-70
2022/10/12 01:38:00;;;;;;;;;;;11.60;99.90;;;;;;5083565;28;19930;-70
2022/10/12 01:40:36;;;;;;;;;;;11.60;99.90;;;;;;5083866;28;19917;-70
2022/10/12 01:43:01;;;;;;;;;;;11.60;99.90;;;;;;5083978;28;19912;-71
2022/10/12 01:45:27;;;;;;;;;;;11.50;99.90;;;;;;5067160;28;19942;-70
2022/10/12 01:47:53;;;;;;;;;;;11.60;99.90;;;;;;5083102;28;20080;-70
2022/10/12 01:50:20;;;;;;;;;;;11.50;99.90;;;;;;5083628;28;19975;-70
2022/10/12 01:52:53;;;;;;;;;;;11.50;99.90;;;;;;5083737;28;20199;-70
2022/10/12 01:55:33;;;;;;;;;;;11.50;99.90;;;;;;5083587;28;19916;-70
2022/10/12 01:58:27;;;;;;;;;;;11.50;99.90;;;;;;5068260;28;19944;-70
2022/10/12 02:01:06;;;;;;;;;;;11.50;99.90;;;;;;5083408;28;19912;-71
2022/10/12 02:03:59;;;;;;;;;;;11.40;99.90;;;;;;5084451;28;19940;-70
2022/10/12 02:06:29;;;;;;;;;;;11.40;99.90;;;;;;5084217;28;20276;-71
2022/10/12 02:08:58;;;;;;;;;;;11.40;99.90;;;;;;5066830;28;19916;-70
2022/10/12 02:11:24;;;;;;;;;;;11.40;99.90;;;;;;5083503;28;19917;-70
2022/10/12 02:14:12;;;;;;;;;;;11.40;99.90;;;;;;5083177;28;19923;-71
2022/10/12 02:16:43;;;;;;;;;;;11.30;99.90;;;;;;5082563;28;19945;-70
2022/10/12 02:19:10;;;;;;;;;;;11.30;99.90;;;;;;5083090;28;19925;-70
2022/10/12 02:21:35;;;;;;;;;;;11.30;99.90;;;;;;5066487;28;19916;-70
2022/10/12 02:24:04;;;;;;;;;;;11.20;99.90;;;;;;5066380;28;19915;-69
2022/10/12 02:26:31;;;;;;;;;;;11.20;99.90;;;;;;5066200;28;20197;-70
2022/10/12 02:28:57;;;;;;;;;;;11.20;99.90;;;;;;5083035;28;19912;-70
2022/10/12 02:31:35;;;;;;;;;;;11.10;99.90;;;;;;5083150;28;19916;-70
2022/10/12 02:34:12;;;;;;;;;;;11.20;99.90;;;;;;5083074;28;20203;-70
2022/10/12 02:36:56;;;;;;;;;;;11.10;99.90;;;;;;5083721;28;20200;-70
2022/10/12 02:39:27;;;;;;;;;;;11.10;99.90;;;;;;5083779;28;19954;-70
2022/10/12 02:41:55;;;;;;;;;;;11.00;99.90;;;;;;5066294;28;19915;-70
2022/10/12 02:44:27;;;;;;;;;;;11.00;99.90;;;;;;5066170;28;19908;-70
2022/10/12 02:46:53;;;;;;;;;;;11.00;99.90;;;;;;5065701;28;19909;-70
2022/10/12 02:49:19;;;;;;;;;;;10.90;99.90;;;;;;5065801;28;19923;-70
2022/10/12 02:51:44;;;;;;;;;;;10.90;99.90;;;;;;5065915;28;19916;-70
2022/10/12 02:54:10;;;;;;;;;;;10.90;99.90;;;;;;5083545;28;19909;-70
2022/10/12 02:56:43;;;;;;;;;;;10.80;99.90;;;;;;5065537;28;19915;-70
2022/10/12 02:59:09;;;;;;;;;;;10.80;99.90;;;;;;5082899;28;20223;-70
2022/10/12 03:01:35;;;;;;;;;;;10.70;99.90;;;;;;5082024;28;19908;-70
2022/10/12 03:04:00;;;;;;;;;;;10.60;99.90;;;;;;5082121;28;20159;-70
2022/10/12 03:06:26;;;;;;;;;;;10.60;99.90;;;;;;5081872;28;19908;-71
2022/10/12 03:08:54;;;;;;;;;;;10.50;99.90;;;;;;5083199;28;19909;-70
2022/10/12 03:11:20;;;;;;;;;;;10.50;99.90;;;;;;5083240;28;20092;-70
2022/10/12 03:13:46;;;;;;;;;;;10.50;99.90;;;;;;5083205;28;19916;-70
2022/10/12 03:16:11;;;;;;;;;;;10.50;99.90;;;;;;5082603;28;20163;-70
2022/10/12 03:18:37;;;;;;;;;;;10.50;99.90;;;;;;5082953;28;20215;-70
2022/10/12 03:21:03;;;;;;;;;;;10.50;99.90;;;;;;5083137;28;19991;-70
2022/10/12 03:23:28;;;;;;;;;;;10.40;99.90;;;;;;5081888;28;19967;-71
2022/10/12 03:25:54;;;;;;;;;;;10.50;99.90;;;;;;5083037;28;19940;-70
2022/10/12 03:28:20;;;;;;;;;;;10.40;99.90;;;;;;5082742;28;20171;-70
2022/10/12 03:30:45;;;;;;;;;;;10.40;99.90;;;;;;5082961;28;19962;-71
2022/10/12 03:33:11;;;;;;;;;;;10.30;99.90;;;;;;5082615;28;19908;-70
2022/10/12 03:35:37;;;;;;;;;;;10.30;99.90;;;;;;5082865;28;19954;-71
2022/10/12 03:38:02;;;;;;;;;;;10.20;99.90;;;;;;5082399;28;19912;-70
2022/10/12 03:40:28;;;;;;;;;;;10.20;99.90;;;;;;5082610;28;20110;-70
2022/10/12 03:42:54;;;;;;;;;;;10.10;99.90;;;;;;5082797;28;19923;-70
2022/10/12 03:45:19;;;;;;;;;;;10.10;99.90;;;;;;5082669;28;20261;-70
2022/10/12 03:47:46;;;;;;;;;;;10.10;99.90;;;;;;5082053;28;20292;-70
2022/10/12 03:50:12;;;;;;;;;;;10.00;99.90;;;;;;5082601;28;20115;-70
2022/10/12 03:52:38;;;;;;;;;;;9.90;99.90;;;;;;5081483;28;19908;-70
2022/10/12 03:55:04;;;;;;;;;;;9.90;99.90;;;;;;5082639;28;19908;-70
2022/10/12 03:57:29;;;;;;;;;;;9.90;99.90;;;;;;5082297;28;20219;-70
2022/10/12 03:59:55;;;;;;;;;;;9.90;99.90;;;;;;5082541;28;20042;-70
2022/10/12 04:02:21;;;;;;;;;;;9.80;99.90;;;;;;5082258;28;19916;-70
2022/10/12 04:04:46;;;;;;;;;;;9.80;99.90;;;;;;5082479;28;19908;-70
2022/10/12 04:07:12;;;;;;;;;;;9.70;99.90;;;;;;5081690;28;20158;-70
2022/10/12 04:09:38;;;;;;;;;;;9.70;99.90;;;;;;5074374;28;19979;-68
2022/10/12 04:12:03;;;;;;;;;;;9.60;99.90;;;;;;5080565;28;19986;-70
2022/10/12 04:14:29;;;;;;;;;;;9.60;99.90;;;;;;5075353;28;20219;-69
2022/10/12 04:16:55;;;;;;;;;;;9.50;99.90;;;;;;5084087;28;19912;-69
2022/10/12 04:19:21;;;;;;;;;;;9.50;99.90;;;;;;5085992;28;19920;-70
2022/10/12 04:21:47;;;;;;;;;;;9.40;99.90;;;;;;5084886;28;20272;-70
2022/10/12 04:24:12;;;;;;;;;;;9.40;99.90;;;;;;5085146;28;19908;-70
2022/10/12 04:26:38;;;;;;;;;;;9.40;99.90;;;;;;5086032;28;19966;-69
2022/10/12 04:29:04;;;;;;;;;;;9.30;99.90;;;;;;5084787;28;19917;-69
2022/10/12 04:31:29;;;;;;;;;;;9.30;99.90;;;;;;5085512;28;19962;-71
2022/10/12 04:33:56;;;;;;;;;;;9.30;99.90;;;;;;5085999;28;20154;-70
2022/10/12 04:36:22;;;;;;;;;;;9.20;99.90;;;;;;5083935;28;19943;-70
2022/10/12 04:38:48;;;;;;;;;;;9.20;99.90;;;;;;5084598;28;19926;-70
2022/10/12 04:41:14;;;;;;;;;;;9.20;99.90;;;;;;5084598;28;20172;-69
2022/10/12 04:43:39;;;;;;;;;;;9.10;99.90;;;;;;5085676;28;20111;-69
2022/10/12 04:46:05;;;;;;;;;;;9.20;99.90;;;;;;5085700;28;19971;-67
2022/10/12 04:48:31;;;;;;;;;;;9.10;99.90;;;;;;5085638;28;19908;-70
2022/10/12 04:50:57;;;;;;;;;;;9.10;99.90;;;;;;5085672;28;19916;-70
2022/10/12 04:53:22;;;;;;;;;;;9.10;99.90;;;;;;5085603;28;19909;-70
2022/10/12 04:55:48;;;;;;;;;;;9.10;99.90;;;;;;5085479;28;20015;-70
2022/10/12 04:58:13;;;;;;;;;;;9.10;99.90;;;;;;5082896;28;19931;-69
2022/10/12 05:00:39;;;;;;;;;;;9.10;99.90;;;;;;5082049;28;19931;-70
2022/10/12 05:03:05;;;;;;;;;;;9.10;99.90;;;;;;5081303;28;19920;-70
2022/10/12 05:05:33;;;;;;;;;;;9.10;99.90;;;;;;5084162;28;19912;-70
2022/10/12 05:07:59;;;;;;;;;;;9.10;99.90;;;;;;5081850;28;19935;-69
2022/10/12 05:10:25;;;;;;;;;;;9.10;99.90;;;;;;5083883;28;19958;-69
2022/10/12 05:12:51;;;;;;;;;;;9.00;99.90;;;;;;5085405;28;19912;-69
2022/10/12 05:15:17;;;;;;;;;;;9.00;99.90;;;;;;5078836;28;20010;-69
2022/10/12 05:17:42;;;;;;;;;;;9.00;99.90;;;;;;5077828;28;19940;-69
2022/10/12 05:20:08;;;;;;;;;;;9.00;99.90;;;;;;5075607;28;19962;-70
2022/10/12 05:22:34;;;;;;;;;;;9.00;99.90;;;;;;5082479;28;19916;-69
2022/10/12 05:25:00;;;;;;;;;;;9.00;99.90;;;;;;5085011;28;20339;-70
2022/10/12 05:27:25;;;;;;;;;;;8.90;99.90;;;;;;5083596;28;19935;-69
2022/10/12 05:29:51;;;;;;;;;;;8.90;99.90;;;;;;5078447;28;19975;-69
2022/10/12 05:32:17;;;;;;;;;;;8.90;99.90;;;;;;5075655;28;19983;-68
2022/10/12 05:34:43;;;;;;;;;;;8.90;99.90;;;;;;5084484;28;20410;-69
2022/10/12 05:37:09;;;;;;;;;;;8.90;99.90;;;;;;5084318;28;19913;-69
2022/10/12 05:39:36;;;;;;;;;;;8.90;99.90;;;;;;5084740;28;19927;-69
2022/10/12 05:42:02;;;;;;;;;;;8.90;99.90;;;;;;5084813;28;19908;-69
2022/10/12 05:44:27;;;;;;;;;;;8.90;99.90;;;;;;5084732;28;20261;-69
2022/10/12 05:46:53;;;;;;;;;;;8.90;99.90;;;;;;5084237;28;19908;-68
2022/10/12 05:49:19;;;;;;;;;;;8.90;99.90;;;;;;5084714;28;19916;-70
2022/10/12 05:51:45;;;;;;;;;;;8.90;99.90;;;;;;5083635;28;19942;-69
2022/10/12 05:54:10;;;;;;;;;;;8.90;99.90;;;;;;5084764;28;19914;-69
2022/10/12 05:56:36;;;;;;;;;;;8.90;99.90;;;;;;5084437;28;19908;-70
2022/10/12 05:59:02;;;;;;;;;;;8.90;99.90;;;;;;5084505;28;19908;-70
2022/10/12 06:01:28;;;;;;;;;;;8.90;99.90;;;;;;5084285;28;19916;-70
2022/10/12 06:03:54;;;;;;;;;;;8.90;99.90;;;;;;5083309;28;19916;-69
2022/10/12 06:06:20;;;;;;;;;;;8.90;99.90;;;;;;5082993;28;19916;-69
2022/10/12 06:08:46;;;;;;;;;;;8.90;99.90;;;;;;5083202;28;20119;-70
2022/10/12 06:11:12;;;;;;;;;;;9.00;99.90;;;;;;5084377;28;19916;-70
2022/10/12 06:13:38;;;;;;;;;;;9.00;99.90;;;;;;5083207;28;19908;-69
2022/10/12 06:16:04;;;;;;;;;;;9.00;99.90;;;;;;5084201;28;19916;-69
2022/10/12 06:18:29;;;;;;;;;;;9.10;99.90;;;;;;5082754;28;19938;-69
2022/10/12 06:20:55;;;;;;;;;;;9.10;99.90;;;;;;5083973;28;20233;-69
2022/10/12 06:23:21;;;;;;;;;;;9.20;99.90;;;;;;5084122;28;20115;-71
2022/10/12 06:25:47;;;;;;;;;;;9.20;99.90;;;;;;5084123;28;19916;-70
2022/10/12 06:28:18;;;;;;;;;;;9.20;99.90;;;;;;5082643;28;19915;-70
2022/10/12 06:30:44;;;;;;;;;;;9.30;99.90;;;;;;5084117;28;19928;-70
2022/10/12 06:33:10;;;;;;;;;;;9.30;99.90;;;;;;5082591;28;19924;-69
2022/10/12 06:35:36;;;;;;;;;;;9.40;99.90;;;;;;5083139;28;19916;-70
2022/10/12 06:38:01;;;;;;;;;;;9.40;99.90;;;;;;5083552;28;19912;-70
2022/10/12 06:40:27;;;;;;;;;;;9.40;99.90;;;;;;5083597;28;19912;-70
2022/10/12 06:42:53;;;;;;;;;;;9.40;99.90;;;;;;5082592;28;19908;-70
2022/10/12 06:45:18;;;;;;;;;;;9.50;99.90;;;;;;5083579;28;19909;-70
2022/10/12 06:47:44;;;;;;;;;;;9.60;99.90;;;;;;5082884;28;19923;-73
2022/10/12 06:50:10;;;;;;;;;;;9.60;99.90;;;;;;5083576;28;19909;-73
2022/10/12 06:52:36;;;;;;;;;;;9.70;99.90;;;;;;5083567;28;19954;-68
2022/10/12 06:55:01;;;;;;;;;;;9.70;99.90;;;;;;5082220;28;20107;-67
2022/10/12 06:57:27;;;;;;;;;;;9.80;99.90;;;;;;5083119;28;20172;-67
2022/10/12 06:59:53;;;;;;;;;;;9.90;99.90;;;;;;5083337;28;20207;-67
2022/10/12 07:02:18;;;;;;;;;;;9.90;99.90;;;;;;5083395;28;19978;-68
2022/10/12 07:04:49;;;;;;;;;;;10.00;99.90;;;;;;5083364;28;19923;-66
2022/10/12 07:07:14;;;;;;;;;;;9.90;99.90;;;;;;5083195;28;19922;-66
2022/10/12 07:09:40;;;;;;;;;;;9.90;99.90;;;;;;5083266;28;19916;-66
2022/10/12 07:12:06;;;;;;;;;;;10.00;99.90;;;;;;5082065;28;19908;-66
2022/10/12 07:14:32;;;;;;;;;;;10.00;99.90;;;;;;5082965;28;19947;-65
2022/10/12 07:16:57;;;;;;;;;;;10.10;99.90;;;;;;5082487;28;19943;-69
2022/10/12 07:19:23;;;;;;;;;;;10.10;99.90;;;;;;5082965;28;19912;-69
2022/10/12 07:21:50;;;;;;;;;;;10.20;99.90;;;;;;5082395;28;20420;-69
2022/10/12 07:24:16;;;;;;;;;;;10.20;99.90;;;;;;5082999;28;20084;-68
2022/10/12 07:26:42;;;;;;;;;;;10.30;99.90;;;;;;5082719;28;19948;-69
2022/10/12 07:29:08;;;;;;;;;;;10.30;99.90;;;;;;5082787;28;19930;-69
2022/10/12 07:31:33;;;;;;;;;;;10.30;99.90;;;;;;5082841;28;20207;-68
2022/10/12 07:33:59;;;;;;;;;;;10.40;99.90;;;;;;5082508;28;19916;-69
2022/10/12 07:36:25;;;;;;;;;;;10.40;99.90;;;;;;5082594;28;19975;-68
2022/10/12 07:38:51;;;;;;;;;;;10.50;99.90;;;;;;5082519;28;19965;-68
2022/10/12 07:41:16;;;;;;;;;;;10.50;99.90;;;;;;5064840;28;20191;-68
2022/10/12 07:43:42;;;;;;;;;;;10.60;99.90;;;;;;5082619;28;19909;-69
2022/10/12 07:46:08;;;;;;;;;;;10.60;99.90;;;;;;5082396;28;19908;-69
2022/10/12 07:48:33;;;;;;;;;;;10.60;99.90;;;;;;5080059;28;19983;-69
2022/10/12 07:51:06;;;;;;;;;;;10.60;99.90;;;;;;5081615;28;19921;-68
2022/10/12 07:53:36;;;;;;;;;;;10.60;99.90;;;;;;5073958;28;19916;-68
2022/10/12 07:56:02;;;;;;;;;;;10.70;99.90;;;;;;5072804;28;19979;-68
2022/10/12 07:58:27;;;;;;;;;;;10.80;99.90;;;;;;5082099;28;19931;-68
2022/10/12 08:00:53;;;;;;;;;;;10.80;99.90;;;;;;5082354;28;20115;-68
2022/10/12 08:03:19;;;;;;;;;;;10.90;99.90;;;;;;5082284;28;19916;-68
2022/10/12 08:05:45;;;;;;;;;;;10.90;99.90;;;;;;5082339;28;19955;-68
2022/10/12 08:08:10;;;;;;;;;;;11.00;99.90;;;;;;5082123;28;20199;-69
2022/10/12 08:10:36;;;;;;;;;;;11.00;99.90;;;;;;5082408;28;19909;-68
2022/10/12 08:13:02;;;;;;;;;;;11.10;99.90;;;;;;5081336;28;19908;-68
2022/10/12 08:15:28;;;;;;;;;;;11.10;99.90;;;;;;5082247;28;19909;-68
2022/10/12 08:17:54;;;;;;;;;;;11.20;99.90;;;;;;5077379;28;19967;-68
2022/10/12 08:20:19;;;;;;;;;;;11.30;99.90;;;;;;5080493;28;19912;-68
2022/10/12 08:22:45;;;;;;;;;;;11.30;99.90;;;;;;5082075;28;19909;-68
2022/10/12 08:25:11;;;;;;;;;;;11.40;99.90;;;;;;5082270;28;20215;-68
2022/10/12 08:27:37;;;;;;;;;;;11.40;99.90;;;;;;5081830;28;20138;-68
2022/10/12 08:30:04;;;;;;;;;;;11.50;99.90;;;;;;5082466;28;19954;-68
2022/10/12 08:32:31;;;;;;;;;;;11.60;99.90;;;;;;5076914;28;19939;-68
2022/10/12 08:34:56;;;;;;;;;;;11.60;99.90;;;;;;5078807;28;19908;-69
2022/10/12 08:37:22;;;;;;;;;;;11.60;99.90;;;;;;5079553;28;19999;-69
2022/10/12 08:39:48;;;;;;;;;;;11.70;99.90;;;;;;5081876;28;20003;-69
2022/10/12 08:42:40;;;;;;;;;;;11.70;99.90;;;;;;5081974;28;19969;-69
2022/10/12 08:45:35;;;;;;;;;;;11.80;99.90;;;;;;5081180;28;19931;-69
2022/10/12 08:48:08;;;;;;;;;;;11.90;99.90;;;;;;5074030;28;19908;-69
2022/10/12 08:50:36;;;;;;;;;;;11.90;99.90;;;;;;5080350;28;19983;-69
2022/10/12 08:53:14;;;;;;;;;;;11.90;99.90;;;;;;5064480;28;19908;-69
2022/10/12 08:55:44;;;;;;;;;;;12.00;99.90;;;;;;5082152;28;20123;-68
2022/10/12 08:58:21;;;;;;;;;;;12.10;99.90;;;;;;5082575;28;19969;-69
2022/10/12 09:00:49;;;;;;;;;;;12.10;99.90;;;;;;5084438;28;19913;-69
2022/10/12 09:03:18;;;;;;;;;;;12.20;99.90;;;;;;5067917;28;19950;-69
2022/10/12 09:06:02;;;;;;;;;;;12.30;99.90;;;;;;5085561;28;19908;-68
2022/10/12 09:08:46;;;;;;;;;;;12.40;99.90;;;;;;5085338;28;19908;-69
2022/10/12 09:11:41;;;;;;;;;;;12.50;99.90;;;;;;5085433;28;19971;-68
2022/10/12 09:14:09;;;;;;;;;;;12.60;99.90;;;;;;5085397;28;19931;-69
2022/10/12 09:16:38;;;;;;;;;;;12.70;99.90;;;;;;5084123;28;20104;-69
2022/10/12 09:19:08;;;;;;;;;;;12.90;99.90;;;;;;5067421;28;19909;-69
2022/10/12 09:21:34;;;;;;;;;;;12.90;99.90;;;;;;5084070;28;19943;-68
2022/10/12 09:23:59;;;;;;;;;;;13.00;99.90;;;;;;5085215;28;19917;-68
2022/10/12 09:26:36;;;;;;;;;;;13.10;99.90;;;;;;5083884;28;19909;-69
2022/10/12 09:29:03;;;;;;;;;;;13.20;99.90;;;;;;5085141;28;19997;-69
2022/10/12 09:31:57;;;;;;;;;;;13.30;99.90;;;;;;5085199;28;19971;-69
2022/10/12 09:34:23;;;;;;;;;;;13.50;99.90;;;;;;5083908;28;19950;-69
2022/10/12 09:36:48;;;;;;;;;;;13.60;99.90;;;;;;5084508;28;19979;-68
2022/10/12 09:39:16;;;;;;;;;;;13.70;99.90;;;;;;5083676;28;20104;-68
2022/10/12 09:41:43;;;;;;;;;;;13.90;99.90;;;;;;5083775;28;20166;-69
2022/10/12 09:44:15;;;;;;;;;;;14.10;99.90;;;;;;5084815;28;19923;-69
2022/10/12 09:46:45;;;;;;;;;;;14.20;99.90;;;;;;5083369;28;19909;-69
2022/10/12 09:49:11;;;;;;;;;;;14.30;99.90;;;;;;5084321;28;19908;-69
2022/10/12 09:51:37;;;;;;;;;;;14.50;99.90;;;;;;5084725;28;19916;-69
2022/10/12 09:54:03;;;;;;;;;;;14.60;99.90;;;;;;5084646;28;19955;-68
2022/10/12 09:56:43;;;;;;;;;;;14.80;99.90;;;;;;5084386;28;19908;-68
2022/10/12 09:59:26;;;;;;;;;;;15.00;99.90;;;;;;5083164;28;19916;-69
2022/10/12 10:02:19;;;;;;;;;;;15.10;99.90;;;;;;5083535;28;20199;-69
2022/10/12 10:04:46;;;;;;;;;;;15.30;99.90;;;;;;5082693;28;19983;-69
2022/10/12 10:07:34;;;;;;;;;;;15.50;99.90;;;;;;5084279;28;19915;-69
2022/10/12 10:10:13;;;;;;;;;;;15.60;99.90;;;;;;5082441;28;19959;-69
2022/10/12 10:12:57;;;;;;;;;;;15.70;99.90;;;;;;5082755;28;19915;-69
2022/10/12 10:15:26;;;;;;;;;;;15.90;99.90;;;;;;5083229;28;19908;-69
2022/10/12 10:17:54;;;;;;;;;;;16.10;99.90;;;;;;5082965;28;19916;-69
2022/10/12 10:20:27;;;;;;;;;;;16.20;99.90;;;;;;5082988;28;19912;-69
2022/10/12 10:22:53;;;;;;;;;;;16.30;99.90;;;;;;5084177;28;19908;-69
2022/10/12 10:25:19;;;;;;;;;;;16.50;99.90;;;;;;5084155;28;20138;-69
2022/10/12 10:27:45;;;;;;;;;;;16.60;99.90;;;;;;5082758;28;19984;-69
2022/10/12 10:30:14;;;;;;;;;;;16.80;99.90;;;;;;5082947;28;19908;-69
2022/10/12 10:32:40;;;;;;;;;;;17.00;99.90;;;;;;5083605;28;19921;-69
2022/10/12 10:35:11;;;;;;;;;;;17.20;99.90;;;;;;5084110;28;19954;-68
2022/10/12 10:37:51;;;;;;;;;;;17.30;99.90;;;;;;5083259;28;20019;-69
2022/10/12 10:40:19;;;;;;;;;;;17.40;99.90;;;;;;5066537;28;20211;-69
2022/10/12 10:42:48;;;;;;;;;;;17.50;99.90;;;;;;5082610;28;19976;-69
2022/10/12 10:45:22;;;;;;;;;;;17.80;99.90;;;;;;5083817;28;20424;-69
2022/10/12 10:47:48;;;;;;;;;;;18.00;99.90;;;;;;5081959;28;19912;-68
2022/10/12 10:50:26;;;;;;;;;;;18.20;99.90;;;;;;5082080;28;19951;-68
2022/10/12 10:52:58;;;;;;;;;;;18.40;99.90;;;;;;5082430;28;20218;-69
2022/10/12 10:55:41;;;;;;;;;;;18.50;99.90;;;;;;5082218;28;20011;-69
2022/10/12 10:58:15;;;;;;;;;;;18.80;99.90;;;;;;5083136;28;19917;-69
2022/10/12 11:00:41;;;;;;;;;;;19.20;99.90;;;;;;5066167;28;19919;-69
2022/10/12 11:03:29;;;;;;;;;;;19.50;99.90;;;;;;5065321;28;20111;-69
2022/10/12 11:06:05;;;;;;;;;;;19.70;99.90;;;;;;5083400;28;19909;-71
2022/10/12 11:08:30;;;;;;;;;;;20.00;99.90;;;;;;5082375;28;20231;-71
2022/10/12 11:11:02;;;;;;;;;;;20.40;99.90;;;;;;5082041;28;19919;-70
2022/10/12 11:13:42;;;;;;;;;;;20.70;99.90;;;;;;5082029;28;19908;-70
2022/10/12 11:16:28;;;;;;;;;;;21.10;99.90;;;;;;5065770;28;19908;-71
2022/10/12 11:18:55;;;;;;;;;;;21.30;99.90;;;;;;5082805;28;19908;-68
2022/10/12 11:21:26;;;;;;;;;;;21.50;99.90;;;;;;5064944;28;19963;-68
2022/10/12 11:24:01;;;;;;;;;;;21.60;99.90;;;;;;5082011;28;19987;-69
2022/10/12 11:26:29;;;;;;;;;;;21.60;99.90;;;;;;5065439;28;19929;-70
2022/10/12 11:28:56;;;;;;;;;;;21.40;99.90;;;;;;5081673;28;19917;-69
2022/10/12 11:31:38;;;;;;;;;;;21.30;99.90;;;;;;5081819;28;19908;-69
2022/10/12 11:34:06;;;;;;;;;;;21.50;99.90;;;;;;5064871;28;19916;-69
2022/10/12 11:36:33;;;;;;;;;;;21.80;99.90;;;;;;5064916;28;19912;-69
2022/10/12 11:39:04;;;;;;;;;;;22.20;99.90;;;;;;5081380;28;19919;-72
2022/10/12 11:41:41;;;;;;;;;;;22.40;99.90;;;;;;5065203;28;19920;-70
2022/10/12 11:44:13;;;;;;;;;;;22.70;99.90;;;;;;5081859;28;19975;-69
2022/10/12 11:46:48;;;;;;;;;;;23.10;99.90;;;;;;5081329;28;19917;-69
2022/10/12 11:49:24;;;;;;;;;;;23.50;99.90;;;;;;5065324;28;19908;-69
2022/10/12 11:51:50;;;;;;;;;;;23.90;99.90;;;;;;5045874;28;20188;-69
2022/10/12 11:54:34;;;;;;;;;;;24.40;99.90;;;;;;5061607;28;19972;-69
2022/10/12 11:57:03;;;;;;;;;;;24.60;99.90;;;;;;5060984;28;19917;-70
2022/10/12 11:59:42;;;;;;;;;;;25.00;99.90;;;;;;5062343;28;19944;-71
2022/10/12 12:02:15;;;;;;;;;;;25.40;99.90;;;;;;5062341;28;19916;-69
2022/10/12 12:04:42;;;;;;;;;;;26.00;99.90;;;;;;5061036;28;19947;-69
2022/10/12 12:07:45;;;;;;;;;;;26.40;99.90;;;;;;5044397;28;19909;-70
2022/10/12 12:10:26;;;;;;;;;;;26.90;97.90;;;;;;5062260;28;19917;-69
2022/10/12 12:13:11;;;;;;;;;;;27.20;95.60;;;;;;5062583;28;19908;-70
2022/10/12 12:15:38;;;;;;;;;;;27.50;92.50;;;;;;5062484;28;19909;-69
2022/10/12 12:18:28;;;;;;;;;;;27.80;91.40;;;;;;5060664;28;19916;-69
2022/10/12 12:21:07;;;;;;;;;;;28.60;90.30;;;;;;5074664;28;19928;-70
2022/10/12 12:23:38;;;;;;;;;;;29.50;84.70;;;;;;5082392;28;19955;-70
2022/10/12 12:26:10;;;;;;;;;;;29.80;80.80;;;;;;5082072;28;20215;-71
2022/10/12 12:28:42;;;;;;;;;;;30.70;76.60;;;;;;5082165;28;20169;-70
2022/10/12 12:31:12;;;;;;;;;;;30.80;64.40;;;;;;5081086;28;19912;-69
2022/10/12 12:33:41;;;;;;;;;;;30.00;69.60;;;;;;5085029;28;20107;-69
2022/10/12 12:36:14;;;;;;;;;;;29.80;73.30;;;;;;5086010;28;20107;-70
2022/10/12 12:38:45;;;;;;;;;;;30.30;72.40;;;;;;5085005;28;19916;-69
2022/10/12 12:41:15;;;;;;;;;;;30.90;67.10;;;;;;5084925;28;20151;-70
2022/10/12 12:43:44;;;;;;;;;;;31.50;65.30;;;;;;5068773;28;19909;-70
2022/10/12 12:46:13;;;;;;;;;;;32.20;61.30;;;;;;5085725;28;19917;-70
2022/10/12 12:48:38;;;;;;;;;;;32.10;58.70;;;;;;5085719;28;19909;-70
2022/10/12 12:51:16;;;;;;;;;;;32.30;59.00;;;;;;5085750;28;20261;-70
2022/10/12 12:53:49;;;;;;;;;;;32.50;59.20;;;;;;5085631;28;19951;-70
2022/10/12 12:56:27;;;;;;;;;;;32.80;58.20;;;;;;5084303;28;20268;-70
2022/10/12 12:59:02;;;;;;;;;;;33.20;57.00;;;;;;5085515;28;19909;-70
2022/10/12 13:01:58;;;;;;;;;;;33.70;55.80;;;;;;5084696;28;19955;-70
2022/10/12 13:04:45;;;;;;;;;;;34.30;52.40;;;;;;5085415;28;20282;-70
2022/10/12 13:07:14;;;;;;;;;;;34.50;51.70;;;;;;5085250;28;19915;-69
2022/10/12 13:10:02;;;;;;;;;;;34.70;48.30;;;;;;5085556;28;19917;-70
2022/10/12 13:12:37;;;;;;;;;;;34.30;48.40;;;;;;5084269;28;20176;-69
2022/10/12 13:15:32;;;;;;;;;;;34.20;48.70;;;;;;5085484;28;19931;-69
2022/10/12 13:18:28;;;;;;;;;;;34.30;48.10;;;;;;5083973;28;19932;-68
2022/10/12 13:20:54;;;;;;;;;;;34.70;48.40;;;;;;5085270;28;20240;-68
2022/10/12 13:23:21;;;;;;;;;;;34.80;46.80;;;;;;5085293;28;19954;-68
2022/10/12 13:25:48;;;;;;;;;;;34.70;47.20;;;;;;5067586;28;19908;-68
2022/10/12 13:28:19;;;;;;;;;;;35.00;45.10;;;;;;5083849;28;19923;-68
2022/10/12 13:31:11;;;;;;;;;;;34.70;46.50;;;;;;5084253;28;19908;-68
2022/10/12 13:33:49;;;;;;;;;;;34.30;47.20;;;;;;5083858;28;19915;-69
2022/10/12 13:36:31;;;;;;;;;;;34.10;46.80;;;;;;5067845;28;20007;-69
2022/10/12 13:38:58;;;;;;;;;;;34.00;48.10;;;;;;5067088;28;19943;-68
2022/10/12 13:41:25;;;;;;;;;;;34.00;47.10;;;;;;5085003;28;19962;-68
2022/10/12 13:44:02;;;;;;;;;;;34.10;47.50;;;;;;5083660;28;19912;-69
2022/10/12 13:46:55;;;;;;;;;;;34.30;47.10;;;;;;5068321;28;19909;-69
2022/10/12 13:49:27;;;;;;;;;;;34.70;46.30;;;;;;5079023;28;20234;-69
2022/10/12 13:52:18;;;;;;;;;;;34.90;45.60;;;;;;5084825;28;19908;-69
2022/10/12 13:54:46;;;;;;;;;;;35.30;44.60;;;;;;5084595;28;19916;-69
2022/10/12 13:57:39;;;;;;;;;;;35.50;43.30;;;;;;5084449;28;19912;-68
2022/10/12 14:00:17;;;;;;;;;;;35.40;42.40;;;;;;5083467;28;19912;-69
2022/10/12 14:03:05;;;;;;;;;;;35.20;42.00;;;;;;5084278;28;20145;-69
2022/10/12 14:05:32;;;;;;;;;;;34.90;43.50;;;;;;5084912;28;19909;-69
2022/10/12 14:08:12;;;;;;;;;;;34.60;44.80;;;;;;5084351;28;20092;-69
2022/10/12 14:10:39;;;;;;;;;;;34.50;43.00;;;;;;5067030;28;19915;-69
2022/10/12 14:13:05;;;;;;;;;;;34.20;44.10;;;;;;5083364;28;20218;-68
2022/10/12 14:15:33;;;;;;;;;;;33.60;45.60;;;;;;5084329;28;19908;-68
2022/10/12 14:17:58;;;;;;;;;;;32.70;47.20;;;;;;5082703;28;20222;-69
2022/10/12 14:20:30;;;;;;;;;;;31.50;52.40;;;;;;5083090;28;19920;-69
2022/10/12 14:22:56;;;;;;;;;;;30.40;56.40;;;;;;5084246;28;20146;-69
2022/10/12 14:25:27;;;;;;;;;;;29.00;61.60;;;;;;5083084;28;19920;-68
2022/10/12 14:27:57;;;;;;;;;;;27.30;74.00;;;;;;5082482;28;19938;-68
2022/10/12 14:30:38;;;;;;;;;;;26.00;88.20;;;;;;5082823;28;19924;-68
2022/10/12 14:33:16;;;;;;;;;;;25.00;94.30;;;;;;5082855;28;19912;-68
2022/10/12 14:35:45;;;;;;;;;;;24.20;98.90;;;;;;5083903;28;19912;-67
2022/10/12 14:38:38;;;;;;;;;;;23.60;99.90;;;;;;5082339;28;19917;-68